createdAt,value
2022-07-28T00:00:45.057Z,45.43
2022-07-28T00:03:11.455Z,45.41
2022-07-28T00:05:37.879Z,45.69
2022-07-28T00:08:04.430Z,45.68
2022-07-28T00:10:32.176Z,45.73
2022-07-28T00:12:59.822Z,45.79
2022-07-28T00:15:26.462Z,45.92
2022-07-28T00:17:52.823Z,46.05
2022-07-28T00:20:19.231Z,45.63
2022-07-28T00:22:45.582Z,46.05
2022-07-28T00:25:11.938Z,45.75
2022-07-28T00:27:38.374Z,45.87
2022-07-28T00:30:05.629Z,45.96
2022-07-28T00:32:32.186Z,46.20
2022-07-28T00:34:58.613Z,46.11
2022-07-28T00:37:24.982Z,46.15
2022-07-28T00:39:52.621Z,46.13
2022-07-28T00:42:19.441Z,46.15
2022-07-28T00:44:45.812Z,46.30
2022-07-28T00:47:12.297Z,46.29
2022-07-28T00:49:38.717Z,46.21
2022-07-28T00:52:05.604Z,46.50
2022-07-28T00:54:32.343Z,46.44
2022-07-28T00:56:58.722Z,46.57
2022-07-28T00:59:25.238Z,46.51
2022-07-28T01:01:53.237Z,46.42
2022-07-28T01:04:19.892Z,46.72
2022-07-28T01:06:54.911Z,46.84
2022-07-28T01:09:39.871Z,46.74
2022-07-28T01:12:24.613Z,46.90
2022-07-28T01:15:03.169Z,46.74
2022-07-28T01:17:33.103Z,46.50
2022-07-28T01:20:09.534Z,46.46
2022-07-28T01:22:38.380Z,46.85
2022-07-28T01:25:07.471Z,47.23
2022-07-28T01:27:42.965Z,47.15
2022-07-28T01:30:28.039Z,46.99
2022-07-28T01:33:15.387Z,47.30
2022-07-28T01:35:42.728Z,47.37
2022-07-28T01:38:09.080Z,47.39
2022-07-28T01:40:35.621Z,47.39
2022-07-28T01:43:02.836Z,47.36
2022-07-28T01:45:29.437Z,47.59
2022-07-28T01:47:55.921Z,47.82
2022-07-28T01:50:23.003Z,47.35
2022-07-28T01:52:49.406Z,47.54
2022-07-28T01:55:17.242Z,47.50
2022-07-28T01:57:43.612Z,47.85
2022-07-28T02:00:10.899Z,47.89
2022-07-28T02:02:40.684Z,47.67
2022-07-28T02:05:07.982Z,47.36
2022-07-28T02:07:34.423Z,47.59
2022-07-28T02:10:00.779Z,47.57
2022-07-28T02:12:27.133Z,47.69
2022-07-28T02:14:53.492Z,47.36
2022-07-28T02:17:20.695Z,47.60
2022-07-28T02:19:48.138Z,47.15
2022-07-28T02:22:14.666Z,47.61
2022-07-28T02:24:41.023Z,47.77
2022-07-28T02:27:11.790Z,47.56
2022-07-28T02:29:50.651Z,47.81
2022-07-28T02:32:27.444Z,47.39
2022-07-28T02:34:55.667Z,47.38
2022-07-28T02:37:22.669Z,46.77
2022-07-28T02:39:58.751Z,46.54
2022-07-28T02:42:27.089Z,46.19
2022-07-28T02:44:57.436Z,46.20
2022-07-28T02:47:24.486Z,45.98
2022-07-28T02:49:50.844Z,45.50
2022-07-28T02:52:17.275Z,45.60
2022-07-28T02:54:43.638Z,45.41
2022-07-28T02:57:10.003Z,45.36
2022-07-28T02:59:37.335Z,45.08
2022-07-28T03:02:03.807Z,44.81
2022-07-28T03:04:49.158Z,44.74
2022-07-28T03:07:15.562Z,44.66
2022-07-28T03:09:42.475Z,44.19
2022-07-28T03:12:11.685Z,44.59
2022-07-28T03:14:38.060Z,44.14
2022-07-28T03:17:04.484Z,44.17
2022-07-28T03:19:30.943Z,44.36
2022-07-28T03:21:57.298Z,43.92
2022-07-28T03:24:24.283Z,44.06
2022-07-28T03:26:57.733Z,43.88
2022-07-28T03:29:24.097Z,43.73
2022-07-28T03:31:50.457Z,43.94
2022-07-28T03:34:17.252Z,43.59
2022-07-28T03:36:44.449Z,43.39
2022-07-28T03:39:11.917Z,43.42
2022-07-28T03:41:38.586Z,43.42
2022-07-28T03:44:05.058Z,43.25
2022-07-28T03:46:31.449Z,43.32
2022-07-28T03:48:58.172Z,43.35
2022-07-28T03:51:25.568Z,43.28
2022-07-28T03:53:51.925Z,43.04
2022-07-28T03:56:18.285Z,43.19
2022-07-28T03:58:44.637Z,43.18
2022-07-28T04:01:11.109Z,43.06
2022-07-28T04:03:43.988Z,42.82
2022-07-28T04:06:13.618Z,42.92
2022-07-28T04:08:39.988Z,42.76
2022-07-28T04:11:06.364Z,42.84
2022-07-28T04:13:32.713Z,43.09
2022-07-28T04:15:59.427Z,42.74
2022-07-28T04:18:25.798Z,43.13
2022-07-28T04:20:52.195Z,42.77
2022-07-28T04:23:20.527Z,43.09
2022-07-28T04:25:46.873Z,42.69
2022-07-28T04:28:13.236Z,42.74
2022-07-28T04:30:44.259Z,42.54
2022-07-28T04:33:11.264Z,42.90
2022-07-28T04:35:37.892Z,43.02
2022-07-28T04:38:04.302Z,42.70
2022-07-28T04:40:30.655Z,42.71
2022-07-28T04:42:57.019Z,42.75
2022-07-28T04:45:23.399Z,42.77
2022-07-28T04:47:49.825Z,43.12
2022-07-28T04:50:18.910Z,42.86
2022-07-28T04:52:48.422Z,42.97
2022-07-28T04:55:14.774Z,43.01
2022-07-28T04:57:41.138Z,43.14
2022-07-28T05:00:13.264Z,43.17
2022-07-28T05:02:43.077Z,42.93
2022-07-28T05:05:09.886Z,43.51
2022-07-28T05:07:36.684Z,43.12
2022-07-28T05:10:03.339Z,43.51
2022-07-28T05:12:29.735Z,44.18
2022-07-28T05:14:56.115Z,44.08
2022-07-28T05:17:22.529Z,44.41
2022-07-28T05:19:48.898Z,44.40
2022-07-28T05:22:15.261Z,44.21
2022-07-28T05:24:41.633Z,44.59
2022-07-28T05:27:07.999Z,44.78
2022-07-28T05:29:46.724Z,45.11
2022-07-28T05:32:16.367Z,44.81
2022-07-28T05:34:43.258Z,45.08
2022-07-28T05:37:09.644Z,45.38
2022-07-28T05:39:36.201Z,45.69
2022-07-28T05:42:02.565Z,45.95
2022-07-28T05:44:28.917Z,46.08
2022-07-28T05:46:55.358Z,46.22
2022-07-28T05:49:23.734Z,46.10
2022-07-28T05:51:50.211Z,46.01
2022-07-28T05:54:16.980Z,46.26
2022-07-28T05:56:47.104Z,46.12
2022-07-28T05:59:16.466Z,46.32
2022-07-28T06:01:42.946Z,46.54
2022-07-28T06:04:26.662Z,46.57
2022-07-28T06:06:54.521Z,46.71
2022-07-28T06:09:20.930Z,46.90
2022-07-28T06:11:47.376Z,48.31
2022-07-28T06:14:14.019Z,47.66
2022-07-28T06:16:40.662Z,47.10
2022-07-28T06:19:07.083Z,46.88
2022-07-28T06:21:33.450Z,46.94
2022-07-28T06:23:59.847Z,46.32
2022-07-28T06:26:26.220Z,46.26
2022-07-28T06:28:52.612Z,45.85
2022-07-28T06:31:19.082Z,45.37
2022-07-28T06:33:45.470Z,45.72
2022-07-28T06:36:11.833Z,45.43
2022-07-28T06:38:38.249Z,45.42
2022-07-28T06:41:04.620Z,45.64
2022-07-28T06:43:31.104Z,45.13
2022-07-28T06:45:58.708Z,44.39
2022-07-28T06:48:29.133Z,44.53
2022-07-28T06:50:58.352Z,44.53
2022-07-28T06:53:24.776Z,45.21
2022-07-28T06:55:54.489Z,44.79
2022-07-28T06:58:20.910Z,45.32
2022-07-28T07:00:47.321Z,44.83
2022-07-28T07:03:13.718Z,44.75
2022-07-28T07:05:40.093Z,45.06
2022-07-28T07:08:06.451Z,45.25
2022-07-28T07:10:32.840Z,45.28
2022-07-28T07:12:59.219Z,45.40
2022-07-28T07:15:25.574Z,45.26
2022-07-28T07:17:54.090Z,45.21
2022-07-28T07:20:20.460Z,45.02
2022-07-28T07:22:46.881Z,44.65
2022-07-28T07:25:13.905Z,44.83
2022-07-28T07:27:40.287Z,44.92
2022-07-28T07:30:06.967Z,44.64
2022-07-28T07:32:33.333Z,44.81
2022-07-28T07:34:59.691Z,44.99
2022-07-28T07:37:26.097Z,45.26
2022-07-28T07:39:52.452Z,45.08
2022-07-28T07:42:18.831Z,45.50
2022-07-28T07:44:50.217Z,45.21
2022-07-28T07:47:16.938Z,44.68
2022-07-28T07:49:46.221Z,44.84
2022-07-28T07:52:13.168Z,44.90
2022-07-28T07:54:39.529Z,44.93
2022-07-28T07:57:05.908Z,45.55
2022-07-28T07:59:32.253Z,45.70
2022-07-28T08:01:58.643Z,45.52
2022-07-28T08:04:25.288Z,45.48
2022-07-28T08:06:51.904Z,45.62
2022-07-28T08:09:18.488Z,45.37
2022-07-28T08:11:44.854Z,45.42
2022-07-28T08:14:11.496Z,45.38
2022-07-28T08:16:38.056Z,45.39
2022-07-28T08:19:04.461Z,45.72
2022-07-28T08:21:32.478Z,45.39
2022-07-28T08:23:58.903Z,45.59
2022-07-28T08:26:25.315Z,45.49
2022-07-28T08:28:51.783Z,45.61
2022-07-28T08:31:21.704Z,45.98
2022-07-28T08:33:54.271Z,45.50
2022-07-28T08:36:21.352Z,45.15
2022-07-28T08:38:47.732Z,44.89
2022-07-28T08:41:16.780Z,44.31
2022-07-28T08:43:43.590Z,44.41
2022-07-28T08:46:09.998Z,44.20
2022-07-28T08:48:37.803Z,45.08
2022-07-28T08:51:05.055Z,43.37
2022-07-28T08:53:31.536Z,43.15
2022-07-28T08:56:12.129Z,42.85
2022-07-28T08:58:38.525Z,42.42
2022-07-28T09:01:05.484Z,42.76
2022-07-28T09:03:31.933Z,42.45
2022-07-28T09:05:58.336Z,41.83
2022-07-28T09:08:24.700Z,42.58
2022-07-28T09:10:51.089Z,42.21
2022-07-28T09:13:17.713Z,42.08
2022-07-28T09:15:46.083Z,42.16
2022-07-28T09:18:13.602Z,41.59
2022-07-28T09:20:40.081Z,41.48
2022-07-28T09:23:43.433Z,40.83
2022-07-28T09:26:10.244Z,40.81
2022-07-28T09:28:50.426Z,41.53
2022-07-28T09:31:17.228Z,42.03
2022-07-28T09:33:56.940Z,42.15
2022-07-28T09:36:23.545Z,42.44
2022-07-28T09:38:49.931Z,42.37
2022-07-28T09:41:19.009Z,42.14
2022-07-28T09:43:46.323Z,41.97
2022-07-28T09:46:14.243Z,41.89
2022-07-28T09:48:49.796Z,41.39
2022-07-28T09:51:31.904Z,41.55
2022-07-28T09:54:11.173Z,41.65
2022-07-28T09:56:38.132Z,41.34
2022-07-28T09:59:04.493Z,40.27
2022-07-28T10:01:35.134Z,41.42
2022-07-28T10:04:03.384Z,40.64
2022-07-28T10:06:29.722Z,40.31
2022-07-28T10:08:56.732Z,40.72
2022-07-28T10:11:24.726Z,40.91
2022-07-28T10:14:02.607Z,41.19
2022-07-28T10:16:32.489Z,40.23
2022-07-28T10:18:59.657Z,40.62
2022-07-28T10:21:26.096Z,41.00
2022-07-28T10:23:53.474Z,40.89
2022-07-28T10:26:20.629Z,41.07
2022-07-28T10:28:48.143Z,41.79
2022-07-28T10:31:14.965Z,41.77
2022-07-28T10:33:44.114Z,41.79
2022-07-28T10:36:10.473Z,41.89
2022-07-28T10:38:36.962Z,41.98
2022-07-28T10:41:03.846Z,41.82
2022-07-28T10:43:31.820Z,42.30
2022-07-28T10:46:08.151Z,42.23
2022-07-28T10:48:36.734Z,41.98
2022-07-28T10:51:03.155Z,41.76
2022-07-28T10:53:38.150Z,41.84
2022-07-28T10:56:07.489Z,42.52
2022-07-28T10:58:36.756Z,42.72
2022-07-28T11:01:06.422Z,42.73
2022-07-28T11:03:59.580Z,42.09
2022-07-28T11:06:35.718Z,41.51
2022-07-28T11:09:16.782Z,38.61
2022-07-28T11:11:43.222Z,39.12
2022-07-28T11:14:25.670Z,39.21
2022-07-28T11:17:01.036Z,39.55
2022-07-28T11:19:51.608Z,39.60
2022-07-28T11:22:34.870Z,39.10
2022-07-28T11:25:21.054Z,39.92
2022-07-28T11:27:51.129Z,40.43
2022-07-28T11:30:33.477Z,41.14
2022-07-28T11:33:00.082Z,41.30
2022-07-28T11:35:26.721Z,41.56
2022-07-28T11:38:02.439Z,41.00
2022-07-28T11:40:32.427Z,41.20
2022-07-28T11:43:17.499Z,41.03
2022-07-28T11:45:52.590Z,41.02
2022-07-28T11:48:22.480Z,41.33
2022-07-28T11:51:03.930Z,41.08
2022-07-28T11:53:34.498Z,40.29
2022-07-28T11:56:03.948Z,40.23
2022-07-28T11:58:30.318Z,39.67
2022-07-28T12:01:13.282Z,39.99
2022-07-28T12:03:50.430Z,40.08
2022-07-28T12:06:28.735Z,39.75
2022-07-28T12:09:00.186Z,39.73
2022-07-28T12:11:27.020Z,39.92
2022-07-28T12:13:59.491Z,40.00
2022-07-28T12:16:26.489Z,39.95
2022-07-28T12:18:53.158Z,39.70
2022-07-28T12:21:46.343Z,40.14
2022-07-28T12:24:19.132Z,40.23
2022-07-28T12:26:49.213Z,40.00
2022-07-28T12:29:16.277Z,39.97
2022-07-28T12:31:56.198Z,39.84
2022-07-28T12:34:24.298Z,39.91
2022-07-28T12:36:56.973Z,40.23
2022-07-28T12:39:25.517Z,40.20
2022-07-28T12:41:59.354Z,39.51
2022-07-28T12:44:31.731Z,39.25
2022-07-28T12:46:58.186Z,39.41
2022-07-28T12:49:24.663Z,39.26
2022-07-28T12:51:51.063Z,39.12
2022-07-28T12:54:17.845Z,39.36
2022-07-28T12:56:50.814Z,39.04
2022-07-28T12:59:18.660Z,38.88
2022-07-28T13:01:44.967Z,39.17
2022-07-28T13:04:12.984Z,39.78
2022-07-28T13:06:40.635Z,39.74
2022-07-28T13:09:07.170Z,39.57
2022-07-28T13:11:47.145Z,39.64
2022-07-28T13:14:14.154Z,40.06
2022-07-28T13:16:40.757Z,38.99
2022-07-28T13:19:08.836Z,39.73
2022-07-28T13:21:41.098Z,39.76
2022-07-28T13:24:23.920Z,40.09
2022-07-28T13:26:50.291Z,39.96
2022-07-28T13:29:16.659Z,40.19
2022-07-28T13:31:43.066Z,40.69
2022-07-28T13:34:09.647Z,40.55
2022-07-28T13:36:36.145Z,40.69
2022-07-28T13:39:02.517Z,40.67
2022-07-28T13:41:28.886Z,40.65
2022-07-28T13:44:15.672Z,41.28
2022-07-28T13:46:47.343Z,41.48
2022-07-28T13:49:16.556Z,41.29
2022-07-28T13:51:43.137Z,41.52
2022-07-28T13:54:09.490Z,41.76
2022-07-28T13:56:36.808Z,41.90
2022-07-28T13:59:03.163Z,41.90
2022-07-28T14:01:33.619Z,41.56
2022-07-28T14:04:01.567Z,41.87
2022-07-28T14:06:28.523Z,42.00
2022-07-28T14:08:55.023Z,42.13
2022-07-28T14:11:22.990Z,42.02
2022-07-28T14:13:52.082Z,41.90
2022-07-28T14:16:19.337Z,42.24
2022-07-28T14:18:45.964Z,42.27
2022-07-28T14:21:12.515Z,42.27
2022-07-28T14:23:38.882Z,42.41
2022-07-28T14:26:33.320Z,42.45
2022-07-28T14:28:51.586Z,42.48
2022-07-28T14:31:18.106Z,42.56
2022-07-28T14:33:49.514Z,42.26
2022-07-28T14:36:18.765Z,42.25
2022-07-28T14:38:54.635Z,42.24
2022-07-28T14:41:21.294Z,41.99
2022-07-28T14:43:47.832Z,42.25
2022-07-28T14:46:19.195Z,42.13
2022-07-28T14:48:47.912Z,42.76
2022-07-28T14:51:14.402Z,42.47
2022-07-28T14:53:49.737Z,42.66
2022-07-28T14:56:18.070Z,42.32
2022-07-28T14:58:44.458Z,42.42
2022-07-28T15:01:10.817Z,42.38
2022-07-28T15:03:37.417Z,42.22
2022-07-28T15:06:03.830Z,42.06
2022-07-28T15:08:30.238Z,42.19
2022-07-28T15:10:57.182Z,42.31
2022-07-28T15:13:23.548Z,42.54
2022-07-28T15:15:49.938Z,42.62
2022-07-28T15:18:16.395Z,42.62
2022-07-28T15:20:43.434Z,42.40
2022-07-28T15:23:10.973Z,42.93
2022-07-28T15:25:37.786Z,41.95
2022-07-28T15:28:04.445Z,42.27
2022-07-28T15:30:30.802Z,42.75
2022-07-28T15:32:59.115Z,42.08
2022-07-28T15:35:26.097Z,41.73
2022-07-28T15:37:52.481Z,41.80
2022-07-28T15:40:18.834Z,41.65
2022-07-28T15:42:45.200Z,41.36
2022-07-28T15:45:11.558Z,42.27
2022-07-28T15:47:37.925Z,41.63
2022-07-28T15:50:04.367Z,41.57
2022-07-28T15:52:30.727Z,41.42
2022-07-28T15:54:57.106Z,41.81
2022-07-28T15:57:23.479Z,41.65
2022-07-28T15:59:50.863Z,41.46
2022-07-28T16:02:18.011Z,41.21
2022-07-28T16:04:52.190Z,41.67
2022-07-28T16:07:23.364Z,41.20
2022-07-28T16:09:50.538Z,41.36
2022-07-28T16:12:16.888Z,41.22
2022-07-28T16:14:43.255Z,41.25
2022-07-28T16:17:10.382Z,41.42
2022-07-28T16:19:49.117Z,41.13
2022-07-28T16:22:16.500Z,41.02
2022-07-28T16:24:42.926Z,41.18
2022-07-28T16:27:09.285Z,41.09
2022-07-28T16:29:35.647Z,41.06
2022-07-28T16:32:04.501Z,40.92
2022-07-28T16:34:30.882Z,41.47
2022-07-28T16:36:57.254Z,41.07
2022-07-28T16:39:23.609Z,41.41
2022-07-28T16:41:50.483Z,41.05
2022-07-28T16:44:17.293Z,41.16
2022-07-28T16:46:44.184Z,41.03
2022-07-28T16:49:10.695Z,41.11
2022-07-28T16:51:37.138Z,41.10
2022-07-28T16:54:03.529Z,40.83
2022-07-28T16:56:29.883Z,41.01
2022-07-28T16:59:00.343Z,40.84
2022-07-28T17:01:26.759Z,41.00
2022-07-28T17:03:53.140Z,41.00
2022-07-28T17:06:19.500Z,41.27
2022-07-28T17:08:45.893Z,41.12
2022-07-28T17:11:12.244Z,41.01
2022-07-28T17:13:42.144Z,41.40
2022-07-28T17:16:11.562Z,41.24
2022-07-28T17:18:38.023Z,41.29
2022-07-28T17:21:04.396Z,41.36
2022-07-28T17:23:30.757Z,41.39
2022-07-28T17:27:11.901Z,41.43
2022-07-28T17:28:51.070Z,41.45
2022-07-28T17:31:17.466Z,41.74
2022-07-28T17:33:43.963Z,42.10
2022-07-28T17:36:10.324Z,41.66
2022-07-28T17:38:36.695Z,41.69
2022-07-28T17:41:07.537Z,41.74
2022-07-28T17:43:34.825Z,42.01
2022-07-28T17:46:02.875Z,41.72
2022-07-28T17:48:34.844Z,41.67
2022-07-28T17:51:01.216Z,40.43
2022-07-28T17:53:28.406Z,39.67
2022-07-28T17:56:00.758Z,39.08
2022-07-28T17:58:33.879Z,38.50
2022-07-28T18:01:10.208Z,38.18
2022-07-28T18:03:57.044Z,38.37
2022-07-28T18:06:26.716Z,38.59
2022-07-28T18:08:53.252Z,38.88
2022-07-28T18:11:19.614Z,39.43
2022-07-28T18:14:04.158Z,39.12
2022-07-28T18:16:31.901Z,39.53
2022-07-28T18:18:58.283Z,39.31
2022-07-28T18:21:26.413Z,39.20
2022-07-28T18:23:52.834Z,39.74
2022-07-28T18:26:21.801Z,38.88
2022-07-28T18:28:48.235Z,38.56
2022-07-28T18:31:14.650Z,38.63
2022-07-28T18:33:41.112Z,38.62
2022-07-28T18:36:07.472Z,38.57
2022-07-28T18:38:33.840Z,38.86
2022-07-28T18:41:00.906Z,40.56
2022-07-28T18:46:31.876Z,40.49
2022-07-28T18:48:58.370Z,40.54
2022-07-28T18:51:25.625Z,40.58
2022-07-28T18:53:52.143Z,40.76
2022-07-28T18:56:18.502Z,40.90
2022-07-28T18:58:44.881Z,40.79
2022-07-28T19:01:13.340Z,40.95
2022-07-28T19:03:40.012Z,41.16
2022-07-28T19:06:06.369Z,40.90
2022-07-28T19:08:32.764Z,41.48
2022-07-28T19:10:59.119Z,42.09
2022-07-28T19:13:25.477Z,42.25
2022-07-28T19:15:51.918Z,42.39
2022-07-28T19:18:18.337Z,42.38
2022-07-28T19:20:44.755Z,42.66
2022-07-28T19:23:11.341Z,42.65
2022-07-28T19:25:40.847Z,42.51
2022-07-28T19:28:07.218Z,42.62
2022-07-28T19:30:33.771Z,42.81
2022-07-28T19:33:00.313Z,43.56
2022-07-28T19:35:26.738Z,42.96
2022-07-28T19:37:53.219Z,43.29
2022-07-28T19:40:19.677Z,44.67
2022-07-28T19:42:48.218Z,43.67
2022-07-28T19:45:14.650Z,43.59
2022-07-28T19:47:42.168Z,43.45
2022-07-28T19:50:08.598Z,43.44
2022-07-28T19:52:34.957Z,43.14
2022-07-28T19:55:04.215Z,43.37
2022-07-28T19:57:31.454Z,43.14
2022-07-28T19:59:58.822Z,43.25
2022-07-28T20:02:25.217Z,43.31
2022-07-28T20:04:51.638Z,43.33
2022-07-28T20:07:18.009Z,43.43
2022-07-28T20:09:44.372Z,43.27
2022-07-28T20:12:10.798Z,43.35
2022-07-28T20:14:37.192Z,43.26
2022-07-28T20:17:03.614Z,43.73
2022-07-28T20:19:30.131Z,43.61
2022-07-28T20:21:57.157Z,43.93
2022-07-28T20:24:23.980Z,43.76
2022-07-28T20:26:50.360Z,43.61
2022-07-28T20:29:16.733Z,43.70
2022-07-28T20:31:43.085Z,44.05
2022-07-28T20:34:12.750Z,43.89
2022-07-28T20:36:39.516Z,44.18
2022-07-28T20:39:27.518Z,44.14
2022-07-28T20:41:52.237Z,43.94
2022-07-28T20:44:28.794Z,44.03
2022-07-28T20:46:58.350Z,43.85
2022-07-28T20:49:24.801Z,43.76
2022-07-28T20:51:51.479Z,43.57
2022-07-28T20:54:18.806Z,43.95
2022-07-28T20:56:45.299Z,44.25
2022-07-28T20:59:11.667Z,44.36
2022-07-28T21:01:38.105Z,44.46
2022-07-28T21:04:04.570Z,44.77
2022-07-28T21:06:31.654Z,44.83
2022-07-28T21:09:00.554Z,44.95
2022-07-28T21:11:26.905Z,44.93
2022-07-28T21:13:53.270Z,44.95
2022-07-28T21:16:19.691Z,45.07
2022-07-28T21:18:46.086Z,44.92
2022-07-28T21:21:12.450Z,45.19
2022-07-28T21:23:38.818Z,45.15
2022-07-28T21:26:11.245Z,45.00
2022-07-28T21:28:56.062Z,44.94
2022-07-28T21:31:22.615Z,45.22
2022-07-28T21:33:49.004Z,45.20
2022-07-28T21:36:15.365Z,45.00
2022-07-28T21:38:41.733Z,45.36
2022-07-28T21:41:08.102Z,45.13
2022-07-28T21:43:34.539Z,45.33
2022-07-28T21:46:00.960Z,45.24
2022-07-28T21:48:27.355Z,45.22
2022-07-28T21:50:53.752Z,44.98
2022-07-28T21:53:20.121Z,45.21
2022-07-28T21:55:46.485Z,45.41
2022-07-28T21:58:12.850Z,45.30
2022-07-28T22:00:39.364Z,45.28
2022-07-28T22:03:05.815Z,44.80
2022-07-28T22:05:32.195Z,44.65
2022-07-28T22:07:58.554Z,45.05
2022-07-28T22:10:24.986Z,45.53
2022-07-28T22:12:51.356Z,45.45
2022-07-28T22:15:17.724Z,45.47
2022-07-28T22:17:44.084Z,45.60
2022-07-28T22:20:10.652Z,45.66
2022-07-28T22:22:37.017Z,45.29
2022-07-28T22:25:03.429Z,45.38
2022-07-28T22:27:29.797Z,45.83
2022-07-28T22:29:56.198Z,45.77
2022-07-28T22:32:28.626Z,45.88
2022-07-28T22:34:55.927Z,45.83
2022-07-28T22:37:22.287Z,45.86
2022-07-28T22:39:48.663Z,45.69
2022-07-28T22:42:15.014Z,45.78
2022-07-28T22:44:41.385Z,45.91
2022-07-28T22:47:07.754Z,46.06
2022-07-28T22:49:34.118Z,45.95
2022-07-28T22:52:00.534Z,45.98
2022-07-28T22:54:26.910Z,45.90
2022-07-28T22:56:53.277Z,46.04
2022-07-28T22:59:19.642Z,46.02
2022-07-28T23:01:47.815Z,46.10
2022-07-28T23:04:14.814Z,45.92
2022-07-28T23:06:42.072Z,46.05
2022-07-28T23:09:08.461Z,46.22
2022-07-28T23:11:34.858Z,46.26
2022-07-28T23:14:01.288Z,46.15
2022-07-28T23:16:27.691Z,45.99
2022-07-28T23:18:54.080Z,45.93
2022-07-28T23:21:20.438Z,46.17
2022-07-28T23:23:46.839Z,46.14
2022-07-28T23:26:13.193Z,46.05
2022-07-28T23:28:39.581Z,46.24
2022-07-28T23:31:06.001Z,46.16
2022-07-28T23:33:56.569Z,46.36
2022-07-28T23:36:26.172Z,45.95
2022-07-28T23:38:53.910Z,45.67
2022-07-28T23:41:20.302Z,45.85
2022-07-28T23:43:46.704Z,45.85
2022-07-28T23:46:13.173Z,46.25
2022-07-28T23:48:39.649Z,46.50
2022-07-28T23:51:06.037Z,46.40
2022-07-28T23:53:32.456Z,46.26
2022-07-28T23:55:58.873Z,46.53
2022-07-28T23:58:25.280Z,46.42
